Time;durP1;ratioP1;P1;durP2;ratioP2;P2;SDS_P1;SDS_P2;PMS_P1;PMS_P2;Temp;Humidity;BMP_temperature;BMP_pressure;BME280_temperature;BME280_humidity;BME280_pressure;Samples;Min_cycle;Max_cycle;Signal;HPM_P1;HPM_P2
2023/01/10 00:00:13;;;;;;;1.63;1.20;;;;;;;7.98;100.00;95864.75;5045257;28;20041;-43
2023/01/10 00:02:44;;;;;;;2.35;1.60;;;;;;;8.00;100.00;95862.81;5050481;28;20087;-46
2023/01/10 00:05:12;;;;;;;;;;;;;;;8.26;100.00;95870.06;5041034;28;20084;-44
2023/01/10 00:07:40;;;;;;;2.53;1.63;;;;;;;8.27;100.00;95877.78;5040690;28;19972;-43
2023/01/10 00:10:10;;;;;;;1.95;1.40;;;;;;;8.03;100.00;95877.44;5048094;28;20083;-46
2023/01/10 00:15:20;;;;;;;2.70;1.90;;;;;;;7.91;100.00;95876.78;5034882;28;20083;-43
2023/01/10 00:17:50;;;;;;;1.60;1.00;;;;;;;8.09;100.00;95879.50;5047952;28;20071;-45
2023/01/10 00:20:19;;;;;;;1.90;1.47;;;;;;;8.17;100.00;95881.41;5049173;28;20072;-45
2023/01/10 00:22:49;;;;;;;3.17;2.03;;;;;;;8.38;100.00;95889.09;5044978;28;21178;-47
2023/01/10 00:25:19;;;;;;;1.95;1.40;;;;;;;8.31;100.00;95897.53;5051620;28;20084;-45
2023/01/10 00:27:52;;;;;;;2.22;1.13;;;;;;;7.94;100.00;95891.41;5051084;28;20092;-45
2023/01/10 00:30:21;;;;;;;3.33;1.70;;;;;;;7.96;100.00;95897.38;5042227;28;20087;-45
2023/01/10 00:32:50;;;;;;;3.45;1.95;;;;;;;8.06;100.00;95899.00;5052489;28;20079;-44
2023/01/10 00:35:19;;;;;;;3.10;1.43;;;;;;;8.12;100.00;95909.88;5046705;28;20077;-47
2023/01/10 00:37:47;;;;;;;2.67;1.50;;;;;;;8.05;100.00;95913.09;5052342;28;20072;-46
2023/01/10 00:40:15;;;;;;;1.40;0.80;;;;;;;8.26;100.00;95920.78;5055104;28;20087;-50
2023/01/10 00:45:30;;;;;;;2.80;1.20;;;;;;;8.25;100.00;95920.91;5047725;28;20068;-43
2023/01/10 00:48:00;;;;;;;2.22;1.33;;;;;;;8.35;100.00;95924.31;5053233;28;20083;-49
2023/01/10 00:50:28;;;;;;;1.75;1.10;;;;;;;8.27;100.00;95934.72;5047019;28;20516;-42
2023/01/10 00:52:56;;;;;;;0.50;0.50;;;;;;;8.79;100.00;95927.22;5049301;28;20080;-44
2023/01/10 00:55:25;;;;;;;4.82;2.60;;;;;;;8.43;100.00;95937.63;5046252;28;20084;-46
2023/01/10 00:57:53;;;;;;;1.00;0.70;;;;;;;8.73;100.00;95941.75;5043133;28;20090;-45
2023/01/10 01:00:21;;;;;;;3.53;1.83;;;;;;;8.53;100.00;95945.44;5043374;28;20083;-45
2023/01/10 01:02:51;;;;;;;0.65;0.60;;;;;;;8.81;100.00;95948.94;5045923;28;20099;-45
2023/01/10 01:05:21;;;;;;;1.03;0.80;;;;;;;8.66;100.00;95947.75;5042180;28;20041;-47
2023/01/10 01:07:50;;;;;;;1.38;0.90;;;;;;;8.99;100.00;95962.94;5046359;28;20049;-44
2023/01/10 01:10:28;;;;;;;2.15;0.70;;;;;;;9.05;100.00;95964.16;5048159;28;20068;-47
2023/01/10 01:12:58;;;;;;;1.08;0.77;;;;;;;9.14;100.00;95963.25;5045273;28;20088;-47
2023/01/10 01:15:27;;;;;;;0.98;0.70;;;;;;;8.92;100.00;95969.75;5038140;28;20418;-44
2023/01/10 01:17:55;;;;;;;1.05;0.95;;;;;;;9.18;100.00;95974.31;5042720;28;20544;-42
2023/01/10 01:20:25;;;;;;;0.90;0.85;;;;;;;8.89;100.00;95985.84;5047331;28;20846;-46
2023/01/10 01:22:53;;;;;;;0.55;0.55;;;;;;;9.02;100.00;95980.25;5043708;28;20108;-47
2023/01/10 01:25:22;;;;;;;0.68;0.57;;;;;;;8.87;100.00;95995.66;5047349;28;20071;-49
2023/01/10 01:27:50;;;;;;;2.28;0.90;;;;;;;8.76;100.00;95999.31;5050523;28;20064;-46
2023/01/10 01:30:19;;;;;;;1.83;1.10;;;;;;;8.83;100.00;95999.56;5045775;28;20080;-43
2023/01/10 01:32:47;;;;;;;2.03;1.08;;;;;;;9.27;100.00;96003.19;5043973;28;20076;-44
2023/01/10 01:35:16;;;;;;;1.40;0.90;;;;;;;9.01;100.00;96013.56;5040344;28;20067;-48
2023/01/10 01:37:46;;;;;;;1.25;0.57;;;;;;;9.21;100.00;96011.69;5049185;28;20523;-45
2023/01/10 01:40:15;;;;;;;0.82;0.57;;;;;;;8.96;100.00;96018.47;5041265;28;20080;-44
2023/01/10 01:42:44;;;;;;;0.52;0.52;;;;;;;9.11;100.00;96018.78;5043595;28;20069;-45
2023/01/10 01:45:39;;;;;;;1.25;0.60;;;;;;;8.98;100.00;96026.19;5047277;28;20068;-49
2023/01/10 01:48:19;;;;;;;0.50;0.50;;;;;;;9.18;100.00;96026.94;5043428;28;20056;-45
2023/01/10 01:50:51;;;;;;;0.65;0.60;;;;;;;9.25;100.00;96033.25;5045862;28;20467;-41
2023/01/10 01:53:24;;;;;;;2.00;1.10;;;;;;;9.21;100.00;96040.63;5047746;28;20085;-46
2023/01/10 01:56:14;;;;;;;1.70;1.10;;;;;;;9.53;100.00;96036.69;5045881;28;20083;-44
2023/01/10 01:58:46;;;;;;;2.00;0.82;;;;;;;9.20;100.00;96040.78;5045553;28;20084;-45
2023/01/10 02:01:16;;;;;;;0.50;0.50;;;;;;;9.31;100.00;96047.63;5052371;28;20482;-47
2023/01/10 02:03:49;;;;;;;2.87;0.87;;;;;;;9.66;100.00;96044.22;5052003;28;20053;-43
2023/01/10 02:06:18;;;;;;;0.95;0.70;;;;;;;9.38;100.00;96054.78;5043982;28;20056;-50
2023/01/10 02:08:53;;;;;;;0.60;0.60;;;;;;;9.48;100.00;96054.75;5052113;28;20072;-47
2023/01/10 02:11:21;;;;;;;0.68;0.50;;;;;;;9.49;100.00;96056.38;5057748;28;20167;-42
2023/01/10 02:13:50;;;;;;;1.67;0.80;;;;;;;9.59;100.00;96057.16;5054784;28;20076;-43
2023/01/10 02:16:18;;;;;;;0.63;0.47;;;;;;;9.44;100.00;96056.00;5046057;28;20084;-46
2023/01/10 02:18:47;;;;;;;0.60;0.60;;;;;;;9.12;100.00;96059.06;5057765;28;20075;-43
2023/01/10 02:21:24;;;;;;;1.05;0.55;;;;;;;9.10;100.00;96056.59;5050041;28;20088;-43
2023/01/10 02:24:43;;;;;;;0.85;0.47;;;;;;;9.06;100.00;96064.94;5048285;28;20494;-44
2023/01/10 02:27:22;;;;;;;1.48;0.95;;;;;;;9.01;100.00;96068.81;4990915;28;20073;-46
2023/01/10 02:30:28;;;;;;;0.50;0.50;;;;;;;8.84;100.00;96064.28;4990764;28;20085;-43
2023/01/10 02:33:00;;;;;;;1.33;0.88;;;;;;;8.79;100.00;96075.25;5023077;28;20503;-48
2023/01/10 02:36:04;;;;;;;0.50;0.47;;;;;;;8.55;100.00;96067.03;5050592;28;20077;-44
2023/01/10 02:38:38;;;;;;;0.80;0.60;;;;;;;8.68;100.00;96082.50;5054589;28;20040;-43
2023/01/10 02:41:15;;;;;;;2.35;1.17;;;;;;;8.83;100.00;96077.59;5050334;28;20480;-50
2023/01/10 02:43:47;;;;;;;1.42;0.88;;;;;;;8.47;100.00;96083.50;5056737;28;20182;-45
2023/01/10 02:46:20;;;;;;;1.83;0.98;;;;;;;8.68;100.00;96082.50;5047752;28;20084;-45
2023/01/10 02:48:49;;;;;;;0.75;0.70;;;;;;;8.91;100.00;96078.56;5048561;28;20498;-45
2023/01/10 02:51:19;;;;;;;1.53;0.90;;;;;;;8.49;100.00;96081.53;5050066;28;20084;-47
2023/01/10 02:53:51;;;;;;;2.53;1.00;;;;;;;8.54;100.00;96094.28;5051381;28;20044;-45
2023/01/10 02:56:48;;;;;;;1.48;0.90;;;;;;;8.70;100.00;96089.25;5048016;28;20095;-43
2023/01/10 02:59:42;;;;;;;1.15;0.90;;;;;;;9.04;100.00;96097.44;5044369;28;20080;-47
2023/01/10 03:02:19;;;;;;;0.68;0.68;;;;;;;8.40;100.00;96102.59;5043843;28;20040;-45
2023/01/10 03:04:54;;;;;;;0.95;0.85;;;;;;;8.64;100.00;96105.59;5054068;28;20461;-46
2023/01/10 03:07:27;;;;;;;2.00;1.35;;;;;;;8.60;100.00;96106.00;5049998;28;20068;-48
2023/01/10 03:09:58;;;;;;;1.05;0.75;;;;;;;8.84;100.00;96113.44;5050148;28;20570;-43
2023/01/10 03:12:29;;;;;;;2.30;0.95;;;;;;;8.84;100.00;96119.50;5047454;28;20064;-47
2023/01/10 03:14:57;;;;;;;3.08;1.45;;;;;;;8.82;100.00;96128.53;5048237;28;20072;-44
2023/01/10 03:17:27;;;;;;;1.30;1.13;;;;;;;9.09;100.00;96133.84;5044135;28;20524;-45
2023/01/10 03:19:59;;;;;;;1.77;1.58;;;;;;;9.02;100.00;96138.03;5041355;28;20075;-45
2023/01/10 03:22:29;;;;;;;2.92;1.80;;;;;;;8.80;100.00;96144.44;5044045;28;20496;-46
2023/01/10 03:25:00;;;;;;;3.13;1.77;;;;;;;8.74;100.00;96148.47;5052526;28;20079;-46
2023/01/10 03:27:30;;;;;;;;;;;;;;;9.03;100.00;96140.50;5046910;28;20134;-44
2023/01/10 03:30:01;;;;;;;1.90;1.08;;;;;;;8.72;100.00;96146.94;5044180;28;19995;-45
2023/01/10 03:32:31;;;;;;;1.33;0.90;;;;;;;8.97;100.00;96154.22;5043664;28;20461;-43
2023/01/10 03:35:01;;;;;;;1.63;1.15;;;;;;;8.91;100.00;96161.84;5047836;28;20340;-47
2023/01/10 03:37:35;;;;;;;5.10;1.10;;;;;;;9.21;100.00;96166.91;5045301;28;20072;-41
2023/01/10 03:40:09;;;;;;;3.53;1.88;;;;;;;8.61;100.00;96168.97;5048349;28;20107;-43
2023/01/10 03:45:35;;;;;;;1.88;1.13;;;;;;;8.67;100.00;96183.31;5046483;28;20076;-47
2023/01/10 03:48:05;;;;;;;4.13;1.85;;;;;;;8.65;100.00;96186.09;5048212;28;20084;-46
2023/01/10 03:50:35;;;;;;;1.40;0.90;;;;;;;8.78;100.00;96193.72;5048488;28;20080;-45
2023/01/10 03:53:04;;;;;;;1.27;0.88;;;;;;;8.52;100.00;96198.69;5047090;28;20076;-43
2023/01/10 03:55:33;;;;;;;0.82;0.82;;;;;;;8.32;100.00;96203.91;5054585;28;20072;-42
2023/01/10 03:58:02;;;;;;;0.93;0.75;;;;;;;8.46;100.00;96215.84;5045442;28;20537;-45
2023/01/10 04:00:30;;;;;;;3.25;1.05;;;;;;;8.69;100.00;96215.56;5049530;28;20112;-42
2023/01/10 04:02:59;;;;;;;1.77;1.17;;;;;;;8.45;100.00;96221.25;5046913;28;20088;-42
2023/01/10 04:05:27;;;;;;;3.42;1.08;;;;;;;8.44;100.00;96217.78;5042547;28;20060;-42
2023/01/10 04:07:57;;;;;;;2.13;1.17;;;;;;;8.84;100.00;96232.56;5041581;28;20448;-47
2023/01/10 04:10:26;;;;;;;0.97;0.73;;;;;;;8.65;100.00;96235.22;5049064;28;20083;-45
2023/01/10 04:12:54;;;;;;;1.55;0.95;;;;;;;8.56;100.00;96227.19;5044955;28;20474;-42
2023/01/10 04:15:22;;;;;;;1.33;1.00;;;;;;;8.86;100.00;96230.66;5046133;28;20072;-46
2023/01/10 04:17:51;;;;;;;1.13;0.90;;;;;;;8.41;100.00;96239.06;5042440;28;20540;-43
2023/01/10 04:20:19;;;;;;;1.90;1.20;;;;;;;8.42;100.00;96240.72;5044160;28;20072;-43
2023/01/10 04:22:50;;;;;;;1.85;1.20;;;;;;;8.34;100.00;96251.06;5051822;28;20068;-42
2023/01/10 04:25:19;;;;;;;1.02;0.57;;;;;;;8.68;100.00;96254.19;5048957;28;20581;-46
2023/01/10 04:27:49;;;;;;;3.10;0.87;;;;;;;8.43;100.00;96263.44;5044649;28;20603;-44
2023/01/10 04:30:17;;;;;;;1.20;1.10;;;;;;;8.16;100.00;96265.84;5040427;28;20077;-43
2023/01/10 04:32:47;;;;;;;1.20;0.85;;;;;;;8.38;100.00;96267.41;5038824;28;20094;-45
2023/01/10 04:35:15;;;;;;;1.10;0.93;;;;;;;8.26;100.00;96277.19;5039396;28;20080;-45
2023/01/10 04:37:43;;;;;;;2.78;1.05;;;;;;;8.74;100.00;96279.91;5035494;28;20132;-44
2023/01/10 04:40:15;;;;;;;0.80;0.80;;;;;;;8.45;100.00;96281.69;5048099;28;20056;-43
2023/01/10 04:42:45;;;;;;;1.15;0.88;;;;;;;8.62;100.00;96291.53;5041475;28;20088;-44
2023/01/10 04:45:16;;;;;;;1.30;0.80;;;;;;;9.02;100.00;96288.78;5044887;28;20068;-43
2023/01/10 04:47:49;;;;;;;1.38;1.00;;;;;;;8.66;100.00;96289.44;5044634;28;20522;-44
2023/01/10 04:50:18;;;;;;;1.10;1.00;;;;;;;8.95;100.00;96294.75;5037279;28;20076;-48
2023/01/10 04:52:46;;;;;;;1.40;1.15;;;;;;;8.94;100.00;96295.69;5040181;28;20485;-43
2023/01/10 04:55:15;;;;;;;1.35;1.10;;;;;;;8.97;100.00;96309.38;5048279;28;20084;-44
2023/01/10 04:57:44;;;;;;;3.67;0.85;;;;;;;8.48;100.00;96305.88;5045009;28;20076;-44
2023/01/10 05:00:13;;;;;;;1.98;1.05;;;;;;;8.92;100.00;96311.63;5045901;28;20076;-44
2023/01/10 05:02:42;;;;;;;1.30;1.10;;;;;;;8.76;100.00;96317.41;5043473;28;20119;-43
2023/01/10 05:05:11;;;;;;;0.95;0.88;;;;;;;9.13;100.00;96316.72;5045128;28;20077;-46
2023/01/10 05:07:40;;;;;;;1.30;0.98;;;;;;;8.87;100.00;96331.41;5042103;28;20061;-46
2023/01/10 05:10:09;;;;;;;1.50;1.10;;;;;;;8.78;100.00;96333.06;5043216;28;20095;-49
2023/01/10 05:12:38;;;;;;;1.85;1.23;;;;;;;9.13;100.00;96334.31;5040944;28;20088;-44
2023/01/10 05:15:09;;;;;;;2.53;1.08;;;;;;;8.94;100.00;96341.22;5047232;28;20080;-44
2023/01/10 05:17:37;;;;;;;;;;;;;;;8.97;100.00;96348.00;5035739;28;20089;-46
2023/01/10 05:20:06;;;;;;;2.35;1.10;;;;;;;8.83;100.00;96349.25;5051314;28;20368;-46
2023/01/10 05:22:34;;;;;;;1.98;0.85;;;;;;;8.46;100.00;96354.28;5043569;28;20073;-46
2023/01/10 05:25:03;;;;;;;1.33;1.00;;;;;;;8.61;100.00;96360.84;5042603;28;20080;-48
2023/01/10 05:27:31;;;;;;;2.63;1.02;;;;;;;8.76;100.00;96358.66;5039002;28;20539;-46
2023/01/10 05:30:04;;;;;;;1.83;1.05;;;;;;;8.84;100.00;96364.03;5041222;28;20084;-48
2023/01/10 05:32:35;;;;;;;1.00;0.90;;;;;;;8.54;100.00;96376.31;5036860;28;20058;-45
2023/01/10 05:35:03;;;;;;;2.35;1.05;;;;;;;8.69;100.00;96368.88;5049323;28;20473;-46
2023/01/10 05:37:32;;;;;;;1.75;1.05;;;;;;;8.70;100.00;96381.03;5046033;28;20124;-44
2023/01/10 05:40:00;;;;;;;2.65;1.52;;;;;;;8.66;100.00;96384.91;5044377;28;20072;-46
2023/01/10 05:42:28;;;;;;;3.28;1.33;;;;;;;8.73;100.00;96390.47;5042797;28;20409;-44
2023/01/10 05:44:57;;;;;;;1.83;0.98;;;;;;;8.62;100.00;96403.72;5043291;28;20103;-46
2023/01/10 05:47:26;;;;;;;1.95;1.52;;;;;;;8.62;100.00;96403.72;5043350;28;20072;-44
2023/01/10 05:49:55;;;;;;;2.42;1.35;;;;;;;8.69;100.00;96413.56;5050304;28;20080;-45
2023/01/10 05:52:24;;;;;;;6.00;1.73;;;;;;;8.19;100.00;96417.88;5049052;28;20096;-44
2023/01/10 05:54:52;;;;;;;1.85;1.38;;;;;;;8.55;100.00;96412.13;5046827;28;20068;-44
2023/01/10 05:57:23;;;;;;;1.90;1.30;;;;;;;8.91;100.00;96420.41;5055881;28;20113;-44
2023/01/10 05:59:51;;;;;;;1.95;1.63;;;;;;;8.98;100.00;96424.16;5044115;28;20535;-43
2023/01/10 06:02:20;;;;;;;1.77;0.90;;;;;;;9.05;100.00;96432.34;5040120;28;20064;-44
2023/01/10 06:04:48;;;;;;;0.80;0.73;;;;;;;8.93;100.00;96443.94;5043868;28;20080;-44
2023/01/10 06:07:18;;;;;;;1.23;1.00;;;;;;;8.64;100.00;96438.59;5056867;28;20075;-46
2023/01/10 06:09:47;;;;;;;2.10;1.23;;;;;;;8.83;100.00;96443.06;5041291;28;21942;-43
2023/01/10 06:12:17;;;;;;;2.30;1.25;;;;;;;8.50;100.00;96450.31;5042140;28;20498;-46
2023/01/10 06:14:45;;;;;;;1.58;1.35;;;;;;;8.63;100.00;96460.56;5045517;28;20119;-44
2023/01/10 06:17:14;;;;;;;2.03;1.65;;;;;;;8.63;100.00;96468.47;5039866;28;20159;-44
2023/01/10 06:19:42;;;;;;;2.58;1.77;;;;;;;8.69;100.00;96470.56;5053785;28;21391;-44
2023/01/10 06:22:10;;;;;;;2.60;1.42;;;;;;;8.87;100.00;96470.75;5049801;28;20076;-44
2023/01/10 06:24:41;;;;;;;1.20;1.10;;;;;;;9.00;100.00;96481.88;5043202;28;20085;-43
2023/01/10 06:27:09;;;;;;;2.35;1.52;;;;;;;9.16;100.00;96481.38;5040673;28;20080;-47
2023/01/10 06:29:38;;;;;;;3.28;1.98;;;;;;;8.68;100.00;96505.72;5044641;28;20080;-45
2023/01/10 06:32:06;;;;;;;3.05;2.10;;;;;;;8.76;100.00;96511.13;5047347;28;20516;-44
2023/01/10 06:34:34;;;;;;;2.65;1.73;;;;;;;8.66;100.00;96518.16;5043360;28;20083;-43
2023/01/10 06:37:03;;;;;;;1.98;1.27;;;;;;;8.70;100.00;96523.00;5047927;28;20084;-46
2023/01/10 06:39:31;;;;;;;1.67;1.17;;;;;;;8.91;100.00;96522.13;5042959;28;20076;-43
2023/01/10 06:42:01;;;;;;;2.50;1.75;;;;;;;8.50;100.00;96544.91;5042011;28;20587;-47
2023/01/10 06:44:30;;;;;;;1.92;1.35;;;;;;;8.80;100.00;96538.81;5040387;28;20072;-43
2023/01/10 06:46:58;;;;;;;1.83;1.25;;;;;;;8.66;100.00;96552.31;5048845;28;20072;-47
2023/01/10 06:49:26;;;;;;;2.85;1.75;;;;;;;8.72;100.00;96555.25;5047703;28;20102;-46
2023/01/10 06:51:55;;;;;;;3.65;1.65;;;;;;;8.70;100.00;96565.06;5048919;28;20068;-46
2023/01/10 06:54:23;;;;;;;2.13;1.17;;;;;;;8.80;100.00;96568.56;5044724;28;20083;-44
2023/01/10 06:56:51;;;;;;;1.88;1.30;;;;;;;8.78;100.00;96574.94;5043761;28;20500;-44
2023/01/10 06:59:21;;;;;;;2.20;1.58;;;;;;;8.63;100.00;96584.94;5040698;28;20072;-44
2023/01/10 07:01:50;;;;;;;1.30;1.13;;;;;;;8.59;100.00;96587.97;5040367;28;20428;-43
2023/01/10 07:04:18;;;;;;;2.38;1.45;;;;;;;8.67;100.00;96603.94;5046719;28;20495;-44
2023/01/10 07:06:47;;;;;;;2.20;1.50;;;;;;;8.87;100.00;96607.50;5052453;28;20077;-45
2023/01/10 07:09:15;;;;;;;1.90;1.73;;;;;;;8.54;100.00;96606.78;5044348;28;20071;-44
2023/01/10 07:11:43;;;;;;;1.70;1.38;;;;;;;8.55;100.00;96611.06;5045680;28;20080;-45
2023/01/10 07:14:12;;;;;;;2.40;1.33;;;;;;;8.43;100.00;96607.66;5043821;28;20076;-44
2023/01/10 07:16:41;;;;;;;2.08;1.40;;;;;;;8.32;100.00;96603.25;5048360;28;20071;-44
2023/01/10 07:19:12;;;;;;;3.17;1.47;;;;;;;8.23;100.00;96609.28;5044411;28;20087;-46
2023/01/10 07:21:40;;;;;;;4.35;1.92;;;;;;;8.07;100.00;96622.00;5044774;28;20887;-45
2023/01/10 07:24:09;;;;;;;2.38;1.45;;;;;;;8.16;100.00;96634.38;5046053;28;20653;-44
2023/01/10 07:26:37;;;;;;;2.80;1.90;;;;;;;8.03;100.00;96638.97;5040506;28;20089;-47
2023/01/10 07:29:06;;;;;;;2.42;1.42;;;;;;;8.25;100.00;96646.75;5047573;28;20528;-47
2023/01/10 07:31:34;;;;;;;1.83;1.48;;;;;;;8.29;100.00;96656.06;5046585;28;20520;-44
2023/01/10 07:34:04;;;;;;;2.85;1.00;;;;;;;8.35;100.00;96653.88;5049743;28;20107;-46
2023/01/10 07:36:34;;;;;;;2.55;1.58;;;;;;;8.24;100.00;96655.59;5047508;28;20075;-45
2023/01/10 07:39:06;;;;;;;1.38;1.23;;;;;;;7.88;100.00;96661.19;5055532;28;20489;-44
2023/01/10 07:41:34;;;;;;;2.38;1.38;;;;;;;8.09;100.00;96675.25;5047646;28;20064;-47
2023/01/10 07:44:03;;;;;;;1.92;1.15;;;;;;;8.09;100.00;96685.75;5049213;28;20080;-46
2023/01/10 07:46:31;;;;;;;2.17;1.08;;;;;;;8.08;100.00;96691.94;5048509;28;20068;-47
2023/01/10 07:48:59;;;;;;;0.82;0.80;;;;;;;8.05;100.00;96700.06;5047652;28;20466;-44
2023/01/10 07:51:29;;;;;;;1.65;1.10;;;;;;;8.43;100.00;96704.91;5043227;28;20082;-44
2023/01/10 07:53:57;;;;;;;1.70;1.03;;;;;;;8.51;100.00;96704.28;5044607;28;20081;-46
2023/01/10 07:56:26;;;;;;;1.58;1.08;;;;;;;8.54;100.00;96698.75;5047016;28;20103;-47
2023/01/10 07:58:54;;;;;;;1.98;1.33;;;;;;;8.45;100.00;96710.03;5041124;28;20091;-43
2023/01/10 08:01:23;;;;;;;2.25;1.70;;;;;;;8.26;100.00;96718.53;5042179;28;20460;-46
2023/01/10 08:03:52;;;;;;;3.38;1.67;;;;;;;8.17;100.00;96724.53;5047188;28;20068;-43
2023/01/10 08:06:20;;;;;;;2.20;1.33;;;;;;;8.51;100.00;96727.94;5042146;28;20140;-45
2023/01/10 08:08:50;;;;;;;2.20;1.85;;;;;;;8.61;100.00;96731.47;5045732;28;20088;-49
2023/01/10 08:11:18;;;;;;;1.57;1.23;;;;;;;8.35;100.00;96725.66;5050186;28;20073;-45
2023/01/10 08:13:46;;;;;;;3.15;1.33;;;;;;;8.40;100.00;96727.97;5045495;28;20095;-48
2023/01/10 08:16:15;;;;;;;3.17;1.88;;;;;;;8.46;100.00;96737.97;5044693;28;20085;-44
2023/01/10 08:18:43;;;;;;;2.00;1.33;;;;;;;8.32;100.00;96736.41;5037632;28;20173;-51
2023/01/10 08:21:11;;;;;;;4.75;2.03;;;;;;;8.34;100.00;96745.03;5044376;28;20088;-46
2023/01/10 08:23:40;;;;;;;2.60;1.40;;;;;;;8.29;100.00;96762.94;5048427;28;20531;-44
2023/01/10 08:26:27;;;;;;;3.17;1.90;;;;;;;8.46;100.00;96757.19;5040822;28;20105;-45
2023/01/10 08:28:55;;;;;;;2.20;1.90;;;;;;;8.14;100.00;96772.06;5042361;28;20087;-45
2023/01/10 08:31:23;;;;;;;3.85;1.75;;;;;;;8.17;100.00;96775.28;5044548;28;20095;-46
2023/01/10 08:33:52;;;;;;;1.80;1.48;;;;;;;8.36;100.00;96773.78;5041018;28;20723;-44
2023/01/10 08:36:21;;;;;;;2.67;1.35;;;;;;;8.53;100.00;96779.41;5037932;28;20077;-44
2023/01/10 08:38:50;;;;;;;2.75;1.70;;;;;;;8.52;100.00;96785.63;5049426;28;20080;-46
2023/01/10 08:41:19;;;;;;;2.72;1.48;;;;;;;8.54;100.00;96790.75;5046496;28;20080;-45
2023/01/10 08:43:50;;;;;;;1.50;1.10;;;;;;;8.72;100.00;96797.16;5046668;28;20512;-45
2023/01/10 08:46:19;;;;;;;3.78;1.23;;;;;;;8.69;100.00;96797.41;5045529;28;20080;-44
2023/01/10 08:48:49;;;;;;;1.42;0.95;;;;;;;8.93;100.00;96796.34;5043782;28;20467;-44
2023/01/10 08:51:17;;;;;;;1.83;1.23;;;;;;;8.87;100.00;96796.84;5042785;28;20179;-47
2023/01/10 08:53:46;;;;;;;1.95;1.50;;;;;;;8.89;100.00;96798.41;5045383;28;20087;-46
2023/01/10 08:56:14;;;;;;;5.80;1.30;;;;;;;8.75;100.00;96804.78;5044262;28;20531;-45
2023/01/10 08:58:42;;;;;;;1.73;1.30;;;;;;;9.08;100.00;96800.34;5042246;28;20087;-47
2023/01/10 09:01:13;;;;;;;4.20;1.30;;;;;;;9.13;100.00;96808.69;5041518;28;20491;-45
2023/01/10 09:03:41;;;;;;;4.57;1.67;;;;;;;8.79;100.00;96808.00;5047005;28;20084;-44
2023/01/10 09:06:09;;;;;;;3.60;1.35;;;;;;;8.86;100.00;96810.97;5036279;28;20081;-46
2023/01/10 09:08:38;;;;;;;1.73;1.23;;;;;;;9.00;100.00;96815.94;5042583;28;20072;-45
2023/01/10 09:11:07;;;;;;;2.95;1.40;;;;;;;8.85;100.00;96817.19;5037968;28;20091;-45
2023/01/10 09:13:35;;;;;;;3.50;1.30;;;;;;;8.85;100.00;96823.28;5044894;28;20069;-44
2023/01/10 09:16:04;;;;;;;3.50;1.70;;;;;;;8.78;100.00;96835.25;5043683;28;20328;-47
2023/01/10 09:18:34;;;;;;;3.20;1.45;;;;;;;9.09;100.00;96832.78;5046095;28;20083;-43
2023/01/10 09:21:02;;;;;;;2.20;1.47;;;;;;;8.96;100.00;96832.94;5041471;28;20085;-46
2023/01/10 09:23:31;;;;;;;1.63;1.20;;;;;;;9.07;100.00;96840.78;5039149;28;20120;-45
2023/01/10 09:26:00;;;;;;;3.08;1.48;;;;;;;8.73;100.00;96845.31;5033495;28;20080;-44
2023/01/10 09:28:28;;;;;;;1.85;1.20;;;;;;;8.98;100.00;96852.03;5046053;28;20469;-49
2023/01/10 09:30:57;;;;;;;6.85;1.17;;;;;;;9.16;100.00;96847.91;5036308;28;20080;-44
2023/01/10 09:33:25;;;;;;;3.83;2.00;;;;;;;9.12;100.00;96853.53;5045738;28;20076;-47
2023/01/10 09:36:14;;;;;;;3.08;1.13;;;;;;;9.25;100.00;96855.03;5039800;28;20073;-47
2023/01/10 09:38:43;;;;;;;1.52;1.20;;;;;;;9.09;100.00;96852.00;5049719;28;20081;-43
2023/01/10 09:41:22;;;;;;;2.45;1.35;;;;;;;9.38;100.00;96868.03;5055391;28;20076;-43
2023/01/10 09:43:57;;;;;;;1.90;1.40;;;;;;;8.89;100.00;96873.84;5045250;28;20084;-45
2023/01/10 09:46:37;;;;;;;2.28;1.38;;;;;;;8.75;100.00;96882.84;5043103;28;20091;-45
2023/01/10 09:49:11;;;;;;;3.45;1.45;;;;;;;8.78;100.00;96893.94;5049368;28;20080;-45
2023/01/10 09:51:43;;;;;;;4.07;1.20;;;;;;;8.48;100.00;96872.72;5048513;28;20088;-45
2023/01/10 09:54:14;;;;;;;4.28;1.30;;;;;;;8.53;100.00;96888.94;5049189;28;20077;-41
2023/01/10 09:56:42;;;;;;;6.03;1.45;;;;;;;8.59;100.00;96890.28;5041440;28;20081;-47
2023/01/10 09:59:14;;;;;;;2.95;1.27;;;;;;;8.84;100.00;96897.84;5049584;28;20084;-43
2023/01/10 10:01:42;;;;;;;2.90;1.50;;;;;;;8.36;100.00;96884.16;5042137;28;20085;-46
2023/01/10 10:04:19;;;;;;;2.42;1.60;;;;;;;8.75;100.00;96885.47;5045066;28;20088;-47
2023/01/10 10:06:50;;;;;;;3.47;1.50;;;;;;;8.90;100.00;96902.63;5047236;28;20072;-46
2023/01/10 10:09:22;;;;;;;1.77;1.45;;;;;;;9.37;100.00;96891.84;5044411;28;20085;-45
2023/01/10 10:11:59;;;;;;;2.20;1.50;;;;;;;9.12;100.00;96895.63;5038913;28;20716;-48
2023/01/10 10:14:41;;;;;;;2.10;1.35;;;;;;;9.21;100.00;96900.16;5046980;28;20080;-54
2023/01/10 10:17:18;;;;;;;3.00;1.23;;;;;;;9.07;100.00;96901.28;5041604;28;20095;-57
2023/01/10 10:19:58;;;;;;;2.45;1.13;;;;;;;9.29;100.00;96892.50;5042998;28;20081;-51
2023/01/10 10:22:36;;;;;;;3.33;1.20;;;;;;;9.18;100.00;96898.59;5047439;28;20064;-52
2023/01/10 10:25:19;;;;;;;2.55;1.95;;;;;;;9.16;100.00;96903.16;5048057;28;20083;-51
2023/01/10 10:28:00;;;;;;;1.45;0.82;;;;;;;9.38;100.00;96894.34;5048391;28;20096;-56
2023/01/10 10:30:37;;;;;;;2.45;1.08;;;;;;;8.93;100.00;96888.41;5048191;28;20087;-52
2023/01/10 10:33:23;;;;;;;1.92;1.35;;;;;;;9.18;100.00;96880.19;5056345;28;20072;-50
2023/01/10 10:35:55;;;;;;;2.25;1.50;;;;;;;9.13;100.00;96879.75;5047805;28;20081;-51
2023/01/10 10:38:28;;;;;;;3.10;0.80;;;;;;;9.37;100.00;96873.44;5045628;28;20083;-56
2023/01/10 10:40:58;;;;;;;1.73;1.10;;;;;;;9.03;100.00;96887.53;5048800;28;20081;-54
2023/01/10 10:43:35;;;;;;;3.83;1.25;;;;;;;9.28;100.00;96890.78;5050493;28;20076;-51
2023/01/10 10:46:21;;;;;;;3.88;1.35;;;;;;;9.44;100.00;96874.59;5043092;28;20072;-52
2023/01/10 10:48:56;;;;;;;2.35;0.82;;;;;;;9.40;100.00;96878.44;5046188;28;20063;-50
2023/01/10 10:51:27;;;;;;;3.05;0.98;;;;;;;9.66;100.00;96863.91;5047608;28;20511;-55
2023/01/10 10:54:00;;;;;;;2.85;0.90;;;;;;;9.85;100.00;96871.13;5041589;28;20191;-55
2023/01/10 10:56:30;;;;;;;2.38;0.90;;;;;;;9.69;100.00;96876.81;5047908;28;20076;-50
2023/01/10 10:58:59;;;;;;;7.90;1.25;;;;;;;9.57;100.00;96869.16;5044541;28;20084;-53
2023/01/10 11:01:27;;;;;;;7.75;0.80;;;;;;;9.39;100.00;96871.47;5050375;28;20451;-53
2023/01/10 11:03:59;;;;;;;3.00;0.95;;;;;;;10.12;100.00;96882.91;5050726;28;20088;-55
2023/01/10 11:06:29;;;;;;;2.75;1.05;;;;;;;9.87;100.00;96877.06;5048608;28;20072;-51
2023/01/10 11:09:03;;;;;;;1.75;0.93;;;;;;;10.19;100.00;96873.50;5047923;28;20068;-48
2023/01/10 11:11:34;;;;;;;2.90;1.15;;;;;;;10.01;100.00;96883.81;5046994;28;20071;-53
2023/01/10 11:14:03;;;;;;;;;;;;;;;9.63;100.00;96895.75;5041651;28;20453;-52
2023/01/10 11:16:33;;;;;;;2.17;0.85;;;;;;;9.48;100.00;96876.81;5049796;28;19955;-54
2023/01/10 11:19:15;;;;;;;7.57;1.30;;;;;;;9.76;100.00;96892.94;5046391;28;20458;-50
2023/01/10 11:21:47;;;;;;;2.92;1.10;;;;;;;9.61;100.00;96895.06;5052230;28;20505;-50
2023/01/10 11:24:32;;;;;;;6.90;1.00;;;;;;;9.59;100.00;96907.53;5042686;28;20072;-50
2023/01/10 11:27:03;;;;;;;6.35;1.00;;;;;;;9.57;100.00;96913.91;5043089;28;20085;-52
2023/01/10 11:29:34;;;;;;;;;;;;;;;9.73;100.00;96919.53;5049700;28;20508;-53
2023/01/10 11:32:09;;;;;;;3.53;1.40;;;;;;;9.77;100.00;96913.03;5044795;28;19968;-50
2023/01/10 11:34:37;;;;;;;5.47;0.88;;;;;;;9.84;100.00;96913.38;5049577;28;20087;-49
2023/01/10 11:37:18;;;;;;;2.80;0.75;;;;;;;10.04;100.00;96906.44;5040798;28;20068;-50
2023/01/10 11:39:48;;;;;;;2.72;1.10;;;;;;;10.19;100.00;96915.69;5039480;28;20576;-53
2023/01/10 11:42:29;;;;;;;4.38;0.90;;;;;;;9.66;100.00;96908.69;5044757;28;20072;-52
2023/01/10 11:45:04;;;;;;;;;;;;;;;9.83;100.00;96898.53;5043372;28;20080;-52
2023/01/10 11:47:33;;;;;;;0.65;0.50;;;;;;;10.23;100.00;96904.72;5046266;28;20529;-52
2023/01/10 11:50:09;;;;;;;4.88;0.93;;;;;;;9.82;100.00;96900.34;5048472;28;20564;-52
2023/01/10 11:52:43;;;;;;;3.28;1.48;;;;;;;9.65;100.00;96893.03;5046821;28;20594;-53
2023/01/10 11:55:19;;;;;;;2.67;0.98;;;;;;;9.95;100.00;96900.97;5045017;28;20077;-50
2023/01/10 11:57:58;;;;;;;2.17;1.20;;;;;;;10.36;100.00;96906.38;5043810;28;20080;-52
2023/01/10 12:00:41;;;;;;;1.98;1.00;;;;;;;10.66;100.00;96910.75;5043072;28;20080;-54